createdAt,value
2018-08-04T00:03:25.612Z,66.11
2018-08-04T00:08:22.799Z,65.62
2018-08-04T00:13:19.400Z,65.88
2018-08-04T00:18:16.032Z,65.30
2018-08-04T00:23:11.691Z,65.50
2018-08-04T00:28:08.664Z,65.69
2018-08-04T00:33:05.145Z,65.66
2018-08-04T00:38:00.770Z,66.91
2018-08-04T00:42:56.529Z,67.17
2018-08-04T00:47:52.301Z,67.46
2018-08-04T00:52:48.918Z,68.14
2018-08-04T00:57:44.754Z,68.62
2018-08-04T01:02:40.789Z,69.17
2018-08-04T01:07:36.434Z,69.36
2018-08-04T01:12:32.615Z,69.59
2018-08-04T01:17:28.755Z,69.49
2018-08-04T01:22:24.618Z,69.59
2018-08-04T01:27:20.649Z,69.68
2018-08-04T01:32:16.641Z,69.46
2018-08-04T01:37:12.475Z,70.32
2018-08-04T01:42:08.413Z,71.78
2018-08-04T01:47:04.413Z,71.58
2018-08-04T01:52:00.329Z,72.32
2018-08-04T01:56:56.087Z,73.00
2018-08-04T02:01:51.916Z,73.77
2018-08-04T02:06:48.141Z,73.48
2018-08-04T02:11:44.203Z,73.09
2018-08-04T02:16:40.397Z,74.16
2018-08-04T02:21:37.326Z,74.83
2018-08-04T02:26:32.988Z,75.22
2018-08-04T02:31:28.691Z,75.09
2018-08-04T02:36:25.814Z,76.24
2018-08-04T02:41:21.202Z,76.82
2018-08-04T02:46:17.028Z,76.72
2018-08-04T02:51:13.493Z,77.01
2018-08-04T02:56:09.685Z,77.69
2018-08-04T03:01:05.678Z,77.78
2018-08-04T03:06:01.465Z,78.52
2018-08-04T03:10:58.813Z,78.52
2018-08-04T03:15:54.663Z,78.13
2018-08-04T03:20:50.644Z,78.52
2018-08-04T03:25:46.952Z,78.81
2018-08-04T03:30:43.728Z,79.10
2018-08-04T03:35:39.477Z,79.77
2018-08-04T03:40:35.388Z,79.49
2018-08-04T03:45:31.479Z,80.45
2018-08-04T03:50:27.403Z,80.45
2018-08-04T03:55:23.159Z,80.64
2018-08-04T04:00:20.191Z,81.12
2018-08-04T04:05:15.880Z,80.45
2018-08-04T04:10:11.530Z,80.93
2018-08-04T04:15:07.469Z,81.12
2018-08-04T04:20:03.639Z,80.35
2018-08-04T04:24:59.991Z,80.26
2018-08-04T04:29:56.103Z,80.06
2018-08-04T04:34:52.125Z,80.93
2018-08-04T04:39:48.116Z,82.09
2018-08-04T04:44:44.029Z,83.15
2018-08-04T04:49:39.799Z,81.51
2018-08-04T04:54:35.750Z,82.57
2018-08-04T04:59:32.938Z,83.15
2018-08-04T05:04:28.674Z,83.15
2018-08-04T05:09:25.081Z,81.93
2018-08-04T05:14:20.948Z,84.41
2018-08-04T05:19:17.855Z,85.81
2018-08-04T05:24:13.673Z,85.66
2018-08-04T05:29:09.456Z,85.37
2018-08-04T05:34:05.542Z,84.21
2018-08-04T05:39:01.607Z,83.48
2018-08-04T05:43:57.694Z,83.67
2018-08-04T05:48:54.024Z,83.48
2018-08-04T05:53:50.939Z,85.02
2018-08-04T05:58:46.465Z,85.41
2018-08-04T06:03:42.982Z,85.70
2018-08-04T06:08:39.500Z,84.44
2018-08-04T06:13:35.418Z,85.16
2018-08-04T06:18:31.704Z,86.86
2018-08-04T06:23:29.032Z,85.16
2018-08-04T06:28:25.108Z,85.89
2018-08-04T06:33:21.208Z,85.55
2018-08-04T06:38:18.355Z,85.49
2018-08-04T06:43:15.193Z,86.17
2018-08-04T06:48:11.404Z,85.59
2018-08-04T06:53:08.335Z,85.98
2018-08-04T06:58:04.169Z,85.44
2018-08-04T07:03:00.156Z,84.47
2018-08-04T07:07:57.102Z,83.61
2018-08-04T07:12:53.644Z,83.64
2018-08-04T07:17:49.305Z,83.20
2018-08-04T07:22:45.364Z,83.64
2018-08-04T07:27:41.336Z,83.01
2018-08-04T07:32:38.158Z,82.08
2018-08-04T07:37:34.179Z,81.70
2018-08-04T07:42:30.310Z,81.40
2018-08-04T07:47:26.286Z,81.40
2018-08-04T07:52:22.294Z,81.40
2018-08-04T07:57:18.758Z,81.89
2018-08-04T08:02:17.163Z,77.06
2018-08-04T08:07:15.787Z,69.96
2018-08-04T08:12:14.145Z,65.59
2018-08-04T08:17:11.851Z,63.02
2018-08-04T08:22:10.187Z,60.49
2018-08-04T08:27:06.948Z,59.84
2018-08-04T08:32:03.367Z,61.15
2018-08-04T08:36:59.500Z,60.20
2018-08-04T08:41:55.986Z,57.65
2018-08-04T08:46:52.328Z,57.18
2018-08-04T08:51:48.272Z,57.76
2018-08-04T08:56:43.361Z,60.36
2018-08-04T09:01:37.087Z,60.17
2018-08-04T09:06:33.589Z,59.49
2018-08-04T09:11:28.241Z,58.32
2018-08-04T09:16:23.661Z,56.47
2018-08-04T09:21:19.668Z,55.18
2018-08-04T09:26:17.885Z,55.69
2018-08-04T09:31:15.374Z,56.30
2018-08-04T09:36:12.502Z,54.21
2018-08-04T09:41:09.640Z,53.36
2018-08-04T09:46:06.814Z,51.10
2018-08-04T09:51:03.671Z,51.80
2018-08-04T09:56:00.662Z,52.39
2018-08-04T10:00:56.799Z,51.56
2018-08-04T10:05:54.261Z,51.29
2018-08-04T10:10:50.591Z,51.46
2018-08-04T10:15:46.536Z,51.37
2018-08-04T10:20:44.133Z,49.65
2018-08-04T10:25:40.405Z,50.29
2018-08-04T10:30:36.538Z,50.32
2018-08-04T10:35:33.154Z,49.19
2018-08-04T10:40:29.809Z,48.97
2018-08-04T10:45:26.238Z,48.28
2018-08-04T10:50:22.039Z,49.49
2018-08-04T10:55:18.019Z,49.61
2018-08-04T11:00:14.140Z,50.15
2018-08-04T11:05:10.944Z,48.36
2018-08-04T11:10:07.773Z,48.97
2018-08-04T11:15:03.774Z,50.24
2018-08-04T11:20:00.089Z,48.97
2018-08-04T11:24:56.601Z,47.33
2018-08-04T11:29:53.164Z,48.41
2018-08-04T11:34:49.294Z,48.53
2018-08-04T11:39:47.061Z,47.11
2018-08-04T11:44:47.119Z,46.42
2018-08-04T11:49:42.910Z,45.64
2018-08-04T11:54:39.646Z,44.38
2018-08-04T11:59:36.923Z,45.54
2018-08-04T12:04:31.925Z,45.25
2018-08-04T12:09:28.499Z,44.66
2018-08-04T12:14:24.293Z,46.40
2018-08-04T12:19:20.701Z,45.39
2018-08-04T12:24:17.401Z,43.94
2018-08-04T12:29:13.368Z,44.19
2018-08-04T12:34:09.152Z,45.66
2018-08-04T12:39:05.248Z,44.70
2018-08-04T12:44:00.566Z,45.81
2018-08-04T12:48:56.187Z,45.59
2018-08-04T12:53:48.924Z,45.05
2018-08-04T12:58:44.262Z,45.89
2018-08-04T13:03:41.385Z,45.81
2018-08-04T13:08:38.923Z,44.76
2018-08-04T13:13:35.301Z,42.74
2018-08-04T13:18:31.625Z,42.08
2018-08-04T13:23:28.083Z,41.80
2018-08-04T13:28:24.832Z,43.04
2018-08-04T13:33:20.506Z,43.13
2018-08-04T13:38:16.302Z,44.27
2018-08-04T13:43:11.659Z,43.70
2018-08-04T13:48:08.532Z,44.58
2018-08-04T13:53:04.230Z,44.68
2018-08-04T13:57:59.936Z,43.72
2018-08-04T14:02:56.382Z,44.56
2018-08-04T14:07:52.096Z,44.64
2018-08-04T14:12:48.825Z,45.03
2018-08-04T14:17:44.233Z,45.30
2018-08-04T14:22:39.583Z,46.26
2018-08-04T14:27:36.523Z,47.11
2018-08-04T14:32:33.504Z,47.60
2018-08-04T14:37:30.183Z,47.53
2018-08-04T14:42:25.812Z,47.21
2018-08-04T14:47:22.762Z,48.48
2018-08-04T14:52:19.206Z,49.33
2018-08-04T14:57:15.894Z,49.92
2018-08-04T15:02:11.370Z,50.20
2018-08-04T15:07:08.298Z,50.29
2018-08-04T15:12:03.753Z,50.59
2018-08-04T15:17:00.767Z,51.37
2018-08-04T15:21:56.444Z,51.17
2018-08-04T15:26:52.617Z,50.49
2018-08-04T15:31:48.778Z,51.37
2018-08-04T15:36:44.791Z,51.07
2018-08-04T15:41:41.066Z,50.12
2018-08-04T15:46:37.261Z,49.51
2018-08-04T15:51:33.271Z,50.68
2018-08-04T15:56:29.559Z,50.59
2018-08-04T16:01:25.745Z,50.51
2018-08-04T16:06:22.911Z,50.81
2018-08-04T16:11:18.742Z,50.81
2018-08-04T16:16:14.749Z,50.39
2018-08-04T16:21:10.951Z,51.27
2018-08-04T16:26:07.089Z,51.66
2018-08-04T16:31:04.061Z,52.05
2018-08-04T16:35:59.956Z,52.70
2018-08-04T16:40:56.822Z,53.68
2018-08-04T16:45:52.509Z,54.36
2018-08-04T16:50:49.468Z,55.71
2018-08-04T16:55:46.155Z,56.58
2018-08-04T17:00:42.089Z,57.73
2018-08-04T17:05:38.139Z,58.02
2018-08-04T17:10:34.122Z,58.67
2018-08-04T17:15:29.902Z,59.35
2018-08-04T17:20:26.866Z,59.45
2018-08-04T17:25:22.630Z,59.64
2018-08-04T17:30:18.720Z,60.69
2018-08-04T17:35:14.603Z,61.47
2018-08-04T17:40:10.376Z,61.96
2018-08-04T17:45:06.211Z,61.96
2018-08-04T17:50:02.199Z,62.70
2018-08-04T17:54:58.118Z,64.65
2018-08-04T17:59:54.137Z,64.91
2018-08-04T18:04:50.067Z,65.40
2018-08-04T18:09:46.161Z,65.88
2018-08-04T18:14:42.201Z,66.34
2018-08-04T18:19:37.921Z,67.02
2018-08-04T18:24:33.689Z,67.31
2018-08-04T18:29:29.600Z,68.15
2018-08-04T18:34:25.427Z,69.42
2018-08-04T18:39:22.307Z,69.48
2018-08-04T18:44:17.936Z,70.16
2018-08-04T18:49:14.070Z,70.71
2018-08-04T18:54:11.284Z,71.97
2018-08-04T18:59:06.915Z,73.20
2018-08-04T19:04:03.314Z,74.46
2018-08-04T19:08:59.860Z,77.28
2018-08-04T19:13:56.732Z,76.89
2018-08-04T19:18:52.293Z,78.11
2018-08-04T19:23:49.087Z,77.82
2018-08-04T19:28:45.814Z,78.59
2018-08-04T19:33:41.571Z,78.85
2018-08-04T19:38:37.482Z,79.14
2018-08-04T19:43:34.266Z,79.68
2018-08-04T19:48:31.498Z,81.43
2018-08-04T19:53:26.806Z,81.77
2018-08-04T19:58:24.220Z,82.26
2018-08-04T20:03:19.829Z,82.26
2018-08-04T20:08:15.779Z,82.03
2018-08-04T20:13:11.598Z,82.32
2018-08-04T20:18:08.429Z,82.60
2018-08-04T20:23:04.950Z,82.12
2018-08-04T20:28:00.876Z,83.38
2018-08-04T20:32:56.900Z,84.69
2018-08-04T20:37:52.846Z,85.66
2018-08-04T20:42:49.749Z,85.72
2018-08-04T20:47:46.077Z,87.17
2018-08-04T20:52:42.000Z,86.98
2018-08-04T20:57:38.208Z,87.65
2018-08-04T21:02:33.935Z,88.09
2018-08-04T21:07:29.750Z,89.59
2018-08-04T21:12:25.561Z,90.66
2018-08-04T21:17:21.350Z,91.58
2018-08-04T21:22:17.395Z,91.63
2018-08-04T21:27:13.192Z,91.49
2018-08-04T21:32:09.249Z,91.49
2018-08-04T21:37:05.460Z,92.45
2018-08-04T21:42:02.492Z,92.55
2018-08-04T21:46:58.820Z,92.83
2018-08-04T21:51:55.185Z,93.71
2018-08-04T21:56:50.878Z,93.51
2018-08-04T22:01:46.746Z,93.13
2018-08-04T22:06:43.776Z,93.61
2018-08-04T22:11:39.435Z,94.14
2018-08-04T22:16:36.260Z,95.11
2018-08-04T22:21:33.334Z,96.17
2018-08-04T22:26:29.023Z,94.19
2018-08-04T22:31:25.298Z,94.96
2018-08-04T22:36:21.922Z,96.08
2018-08-04T22:41:17.953Z,96.26
2018-08-04T22:46:13.719Z,97.24
2018-08-04T22:51:09.828Z,98.92
2018-08-04T22:56:05.811Z,98.83
2018-08-04T23:01:02.074Z,98.92
2018-08-04T23:05:57.844Z,99.99
2018-08-04T23:10:55.192Z,99.88
2018-08-04T23:15:50.570Z,99.99
2018-08-04T23:20:46.282Z,99.99
2018-08-04T23:25:42.312Z,99.99
2018-08-04T23:30:38.520Z,99.69
2018-08-04T23:35:34.534Z,99.79
2018-08-04T23:40:30.399Z,99.99
2018-08-04T23:45:26.819Z,99.31
2018-08-04T23:50:22.764Z,99.99
2018-08-04T23:55:18.515Z,99.99
